createdAt,value
2024-04-17T00:01:38.979Z,1.27
2024-04-17T00:04:06.065Z,1.40
2024-04-17T00:06:32.865Z,2.65
2024-04-17T00:08:59.784Z,1.70
2024-04-17T00:11:26.442Z,2.25
2024-04-17T00:13:53.387Z,1.23
2024-04-17T00:16:20.106Z,1.58
2024-04-17T00:18:46.658Z,2.28
2024-04-17T00:21:13.701Z,1.95
2024-04-17T00:23:41.398Z,0.90
2024-04-17T00:26:08.017Z,2.95
2024-04-17T00:28:34.642Z,1.23
2024-04-17T00:31:03.606Z,1.00
2024-04-17T00:33:31.978Z,0.90
2024-04-17T00:35:59.062Z,3.13
2024-04-17T00:38:25.755Z,0.90
2024-04-17T00:40:52.542Z,1.08
2024-04-17T00:43:19.201Z,3.85
2024-04-17T00:45:45.777Z,2.00
2024-04-17T00:48:13.564Z,1.42
2024-04-17T00:50:40.550Z,2.25
2024-04-17T00:53:07.328Z,1.27
2024-04-17T00:55:34.011Z,1.27
2024-04-17T00:58:00.713Z,0.98
2024-04-17T01:00:29.837Z,2.50
2024-04-17T01:02:56.646Z,1.00
2024-04-17T01:05:23.576Z,1.23
2024-04-17T01:07:50.225Z,1.33
2024-04-17T01:10:16.787Z,1.17
2024-04-17T01:12:43.411Z,1.10
2024-04-17T01:15:09.992Z,2.22
2024-04-17T01:17:36.796Z,1.08
2024-04-17T01:20:04.634Z,2.30
2024-04-17T01:22:32.385Z,1.85
2024-04-17T01:24:59.436Z,2.10
2024-04-17T01:27:26.043Z,0.88
2024-04-17T01:29:53.375Z,1.13
2024-04-17T01:32:19.968Z,2.53
2024-04-17T01:34:47.678Z,0.60
2024-04-17T01:37:14.283Z,1.58
2024-04-17T01:39:40.869Z,3.40
2024-04-17T01:42:07.746Z,1.05
2024-04-17T01:44:34.561Z,1.63
2024-04-17T01:47:01.414Z,0.60
2024-04-17T01:49:28.304Z,1.42
2024-04-17T01:51:54.921Z,2.00
2024-04-17T01:54:21.530Z,0.63
2024-04-17T01:56:48.620Z,1.10
2024-04-17T01:59:15.958Z,0.75
2024-04-17T02:01:42.673Z,0.85
2024-04-17T02:04:09.335Z,0.80
2024-04-17T02:06:36.056Z,1.05
2024-04-17T02:09:02.699Z,1.75
2024-04-17T02:11:29.294Z,0.82
2024-04-17T02:13:55.993Z,0.85
2024-04-17T02:16:22.622Z,0.70
2024-04-17T02:18:49.252Z,0.70
2024-04-17T02:21:15.949Z,2.55
2024-04-17T02:23:42.579Z,0.70
2024-04-17T02:26:13.261Z,0.70
2024-04-17T02:28:40.250Z,1.13
2024-04-17T02:31:06.995Z,0.70
2024-04-17T02:33:33.658Z,1.20
2024-04-17T02:36:01.286Z,0.70
2024-04-17T02:38:28.196Z,0.70
2024-04-17T02:40:54.946Z,1.27
2024-04-17T02:43:21.639Z,0.50
2024-04-17T02:45:49.282Z,0.52
2024-04-17T02:48:15.916Z,0.50
2024-04-17T02:50:42.553Z,0.65
2024-04-17T02:53:09.260Z,0.50
2024-04-17T02:55:36.031Z,0.70
2024-04-17T02:58:02.679Z,0.75
2024-04-17T03:00:29.455Z,0.77
2024-04-17T03:02:56.325Z,0.65
2024-04-17T03:05:23.177Z,0.70
2024-04-17T03:07:49.852Z,0.60
2024-04-17T03:10:17.799Z,0.60
2024-04-17T03:12:44.472Z,0.70
2024-04-17T03:15:13.477Z,1.77
2024-04-17T03:17:40.800Z,0.60
2024-04-17T03:20:09.967Z,1.50
2024-04-17T03:22:36.781Z,1.83
2024-04-17T03:25:03.417Z,0.70
2024-04-17T03:27:30.028Z,0.60
2024-04-17T03:29:56.728Z,0.70
2024-04-17T03:32:23.294Z,1.75
2024-04-17T03:34:49.963Z,0.60
2024-04-17T03:37:22.082Z,0.70
2024-04-17T03:39:49.355Z,1.35
2024-04-17T03:42:17.373Z,0.70
2024-04-17T03:44:45.305Z,0.70
2024-04-17T03:47:12.353Z,0.60
2024-04-17T03:49:39.049Z,0.88
2024-04-17T03:52:05.988Z,0.70
2024-04-17T03:54:32.744Z,1.05
2024-04-17T03:57:01.880Z,0.57
2024-04-17T03:59:28.446Z,1.90
2024-04-17T04:01:55.386Z,0.50
2024-04-17T04:04:22.092Z,0.60
2024-04-17T04:06:52.489Z,0.60
2024-04-17T04:09:19.832Z,0.70
2024-04-17T04:11:46.479Z,0.95
2024-04-17T04:14:13.499Z,0.77
2024-04-17T04:16:40.167Z,0.70
2024-04-17T04:19:07.385Z,0.93
2024-04-17T04:21:34.296Z,0.85
2024-04-17T04:24:01.207Z,0.80
2024-04-17T04:26:27.850Z,0.70
2024-04-17T04:28:54.509Z,0.88
2024-04-17T04:31:21.158Z,0.85
2024-04-17T04:33:47.831Z,1.73
2024-04-17T04:36:14.574Z,0.88
2024-04-17T04:38:41.159Z,1.00
2024-04-17T04:41:10.208Z,1.98
2024-04-17T04:43:36.777Z,1.10
2024-04-17T04:46:03.384Z,1.00
2024-04-17T04:48:30.081Z,1.00
2024-04-17T04:50:56.754Z,1.58
2024-04-17T04:53:23.315Z,1.05
2024-04-17T04:55:50.344Z,1.00
2024-04-17T04:58:16.889Z,1.60
2024-04-17T05:00:43.694Z,1.20
2024-04-17T05:03:10.411Z,1.55
2024-04-17T05:05:37.499Z,1.33
2024-04-17T05:08:04.144Z,1.25
2024-04-17T05:10:30.954Z,1.52
2024-04-17T05:12:57.731Z,1.10
2024-04-17T05:15:24.334Z,1.30
2024-04-17T05:17:51.179Z,1.30
2024-04-17T05:20:17.836Z,1.35
2024-04-17T05:22:44.526Z,1.80
2024-04-17T05:25:11.237Z,1.38
2024-04-17T05:27:37.856Z,1.20
2024-04-17T05:30:05.460Z,1.45
2024-04-17T05:32:32.080Z,1.90
2024-04-17T05:34:58.828Z,2.00
2024-04-17T05:37:26.413Z,1.88
2024-04-17T05:39:53.541Z,1.90
2024-04-17T05:42:20.199Z,2.10
2024-04-17T05:44:46.715Z,1.90
2024-04-17T05:47:13.809Z,2.65
2024-04-17T05:49:40.724Z,1.70
2024-04-17T05:52:07.274Z,2.22
2024-04-17T05:54:33.846Z,2.20
2024-04-17T05:57:01.531Z,2.03
2024-04-17T06:05:09.811Z,2.15
2024-04-17T06:07:39.625Z,2.60
2024-04-17T06:10:06.383Z,4.00
2024-04-17T06:12:33.003Z,2.78
2024-04-17T06:14:59.548Z,2.72
2024-04-17T06:17:26.217Z,3.47
2024-04-17T06:19:53.116Z,3.00
2024-04-17T06:22:22.852Z,3.00
2024-04-17T06:24:49.420Z,3.20
2024-04-17T06:27:20.936Z,3.05
2024-04-17T06:29:47.526Z,3.55
2024-04-17T06:32:14.909Z,3.35
2024-04-17T06:34:41.967Z,2.70
2024-04-17T06:42:48.540Z,7.22
2024-04-17T06:45:15.580Z,3.58
2024-04-17T06:47:42.401Z,3.55
2024-04-17T06:50:09.558Z,3.35
2024-04-17T06:52:36.235Z,4.13
2024-04-17T06:55:05.300Z,3.67
2024-04-17T06:57:31.888Z,4.90
2024-04-17T07:00:01.196Z,3.63
2024-04-17T07:02:27.903Z,3.40
2024-04-17T07:04:54.578Z,4.05
2024-04-17T07:07:21.204Z,4.32
2024-04-17T07:09:47.991Z,5.45
2024-04-17T07:12:15.034Z,3.55
2024-04-17T07:14:41.666Z,3.70
2024-04-17T07:17:09.552Z,3.95
2024-04-17T07:19:36.543Z,7.38
2024-04-17T07:22:03.764Z,4.18
2024-04-17T07:24:31.551Z,4.47
2024-04-17T07:26:58.499Z,4.68
2024-04-17T07:29:25.092Z,4.07
2024-04-17T07:31:52.148Z,4.00
2024-04-17T07:34:19.194Z,4.60
2024-04-17T07:36:46.961Z,4.18
2024-04-17T07:39:14.002Z,4.07
2024-04-17T07:41:41.022Z,4.63
2024-04-17T07:44:07.994Z,4.50
2024-04-17T07:46:34.617Z,4.22
2024-04-17T07:49:01.686Z,5.10
2024-04-17T07:51:28.375Z,4.82
2024-04-17T08:05:13.205Z,4.25
2024-04-17T08:07:40.996Z,3.85
2024-04-17T08:10:07.717Z,4.00
2024-04-17T08:12:36.439Z,3.65
2024-04-17T08:15:03.691Z,3.65
2024-04-17T08:17:30.534Z,3.90
2024-04-17T08:19:57.317Z,3.70
2024-04-17T08:22:24.058Z,3.97
2024-04-17T08:24:50.755Z,4.50
2024-04-17T08:27:17.330Z,3.75
2024-04-17T08:29:44.569Z,4.22
2024-04-17T08:32:12.271Z,4.18
2024-04-17T08:34:39.059Z,4.15
2024-04-17T08:37:05.729Z,3.80
2024-04-17T08:39:32.329Z,4.28
2024-04-17T08:41:58.967Z,4.57
2024-04-17T08:44:27.982Z,4.38
2024-04-17T08:46:55.522Z,4.60
2024-04-17T08:49:22.327Z,4.50
2024-04-17T08:51:49.908Z,4.78
2024-04-17T08:54:16.505Z,6.05
2024-04-17T08:56:43.148Z,4.82
2024-04-17T08:59:09.866Z,4.40
2024-04-17T09:01:36.524Z,5.03
2024-04-17T09:04:03.640Z,5.05
2024-04-17T09:06:30.300Z,5.22
2024-04-17T09:08:56.867Z,4.78
2024-04-17T09:11:24.708Z,6.38
2024-04-17T09:13:51.356Z,5.65
2024-04-17T09:16:17.944Z,5.78
2024-04-17T09:18:46.000Z,7.18
2024-04-17T09:21:12.625Z,4.90
2024-04-17T09:23:39.351Z,5.18
2024-04-17T09:26:07.431Z,5.38
2024-04-17T09:28:34.124Z,5.88
2024-04-17T09:31:01.115Z,6.57
2024-04-17T09:33:27.708Z,6.45
2024-04-17T09:35:56.182Z,6.47
2024-04-17T09:38:25.433Z,6.60
2024-04-17T09:40:52.036Z,7.15
2024-04-17T09:43:22.541Z,7.35
2024-04-17T09:45:54.880Z,9.00
2024-04-17T09:48:22.736Z,7.20
2024-04-17T09:50:49.388Z,6.80
2024-04-17T09:53:27.838Z,8.73
2024-04-17T09:56:03.621Z,6.60
2024-04-17T09:58:30.263Z,6.78
2024-04-17T10:00:57.884Z,7.90
2024-04-17T10:03:24.638Z,7.40
2024-04-17T10:05:51.250Z,6.45
2024-04-17T10:08:18.036Z,6.45
2024-04-17T10:10:44.701Z,7.03
2024-04-17T10:13:11.354Z,7.90
2024-04-17T10:15:37.958Z,6.38
2024-04-17T10:18:04.856Z,6.18
2024-04-17T10:20:31.970Z,6.45
2024-04-17T10:23:01.418Z,6.95
2024-04-17T10:27:57.998Z,7.97
2024-04-17T10:30:26.170Z,6.70
2024-04-17T10:32:55.646Z,7.45
2024-04-17T10:35:22.593Z,5.93
2024-04-17T10:37:52.876Z,7.15
2024-04-17T10:40:20.452Z,5.20
2024-04-17T10:42:47.250Z,7.10
2024-04-17T10:45:13.871Z,5.68
2024-04-17T10:47:40.539Z,6.47
2024-04-17T10:50:07.365Z,7.25
2024-04-17T10:52:34.207Z,7.07
2024-04-17T10:55:01.220Z,5.70
2024-04-17T10:57:28.202Z,6.63
2024-04-17T10:59:55.078Z,5.63
2024-04-17T11:02:21.637Z,6.07
2024-04-17T11:04:48.224Z,6.20
2024-04-17T11:07:22.532Z,6.10
2024-04-17T11:09:52.710Z,5.53
2024-04-17T11:12:19.786Z,6.40
2024-04-17T11:14:46.403Z,4.45
2024-04-17T11:17:13.382Z,4.43
2024-04-17T11:19:41.345Z,4.25
2024-04-17T11:22:07.955Z,4.55
2024-04-17T11:24:34.569Z,4.22
2024-04-17T11:27:01.435Z,3.72
2024-04-17T11:29:34.059Z,3.70
2024-04-17T11:32:07.905Z,4.10
2024-04-17T11:34:34.544Z,4.18
2024-04-17T11:37:04.332Z,3.95
2024-04-17T11:39:32.955Z,3.38
2024-04-17T11:42:00.935Z,3.50
2024-04-17T11:50:10.772Z,3.80
2024-04-17T11:52:37.813Z,4.40
2024-04-17T11:55:04.457Z,3.83
2024-04-17T11:57:31.614Z,3.67
2024-04-17T11:59:58.404Z,3.22
2024-04-17T12:02:24.949Z,2.95
2024-04-17T12:04:51.708Z,2.85
2024-04-17T12:07:18.395Z,2.60
2024-04-17T12:09:45.025Z,2.45
2024-04-17T12:12:11.913Z,2.55
2024-04-17T12:14:38.502Z,2.58
2024-04-17T12:17:05.129Z,1.70
2024-04-17T12:19:31.783Z,2.35
2024-04-17T12:21:58.344Z,2.95
2024-04-17T12:24:25.286Z,4.28
2024-04-17T12:26:52.869Z,2.47
2024-04-17T12:29:20.059Z,2.20
2024-04-17T12:31:54.519Z,2.53
2024-04-17T12:34:22.575Z,3.22
2024-04-17T12:36:49.442Z,3.17
2024-04-17T12:39:16.851Z,2.00
2024-04-17T12:41:43.538Z,3.83
2024-04-17T12:44:10.208Z,2.78
2024-04-17T12:46:37.083Z,2.13
2024-04-17T12:49:07.243Z,2.15
2024-04-17T12:51:34.815Z,4.57
2024-04-17T12:54:01.437Z,2.55
2024-04-17T12:56:30.609Z,2.90
2024-04-17T12:58:57.323Z,2.53
2024-04-17T13:01:24.024Z,3.38
2024-04-17T13:03:50.734Z,2.22
2024-04-17T13:06:22.904Z,1.83
2024-04-17T13:14:18.383Z,2.25
2024-04-17T13:16:45.602Z,2.95
2024-04-17T13:19:12.551Z,2.10
2024-04-17T13:21:40.114Z,1.67
2024-04-17T13:24:07.417Z,3.97
2024-04-17T13:26:34.271Z,1.80
2024-04-17T13:29:00.893Z,2.20
2024-04-17T13:31:27.563Z,3.03
2024-04-17T13:33:54.194Z,2.78
2024-04-17T13:36:21.074Z,1.50
2024-04-17T13:38:47.750Z,1.42
2024-04-17T13:41:14.662Z,3.03
2024-04-17T13:43:41.800Z,3.05
2024-04-17T13:46:08.731Z,1.50
2024-04-17T13:48:35.835Z,1.60
2024-04-17T13:51:02.539Z,1.52
2024-04-17T13:53:32.440Z,1.42
2024-04-17T13:55:59.415Z,1.95
2024-04-17T13:58:26.027Z,1.70
2024-04-17T14:00:52.821Z,1.90
2024-04-17T14:03:19.726Z,2.17
2024-04-17T14:05:46.369Z,2.10
2024-04-17T14:08:13.178Z,1.90
2024-04-17T14:10:40.153Z,1.92
2024-04-17T14:13:08.871Z,1.38
2024-04-17T14:15:39.479Z,1.95
2024-04-17T14:18:07.346Z,1.20
2024-04-17T14:20:34.069Z,1.20
2024-04-17T14:23:01.111Z,1.20
2024-04-17T14:25:27.767Z,2.38
2024-04-17T14:27:54.452Z,1.52
2024-04-17T14:30:23.546Z,1.45
2024-04-17T14:32:50.240Z,1.63
2024-04-17T14:35:17.185Z,2.47
2024-04-17T14:37:44.420Z,1.60
2024-04-17T14:40:12.094Z,1.38
2024-04-17T14:42:38.756Z,1.40
2024-04-17T14:45:08.012Z,1.45
2024-04-17T14:47:35.366Z,1.77
2024-04-17T14:50:02.303Z,1.60
2024-04-17T14:55:21.064Z,1.40
2024-04-17T14:57:47.881Z,1.25
2024-04-17T15:00:14.528Z,1.20
2024-04-17T15:02:41.109Z,0.77
2024-04-17T15:05:15.277Z,1.50
2024-04-17T15:07:42.767Z,0.93
2024-04-17T15:10:09.666Z,0.98
2024-04-17T15:12:36.357Z,1.00
2024-04-17T15:15:06.038Z,2.25
2024-04-17T15:17:32.887Z,1.23
2024-04-17T15:20:00.863Z,0.90
2024-04-17T15:22:27.439Z,1.00
2024-04-17T15:24:55.071Z,1.13
2024-04-17T15:27:21.670Z,2.15
2024-04-17T15:32:32.819Z,1.17
2024-04-17T15:34:59.737Z,2.05
2024-04-17T15:37:31.504Z,2.38
2024-04-17T15:39:59.623Z,1.52
2024-04-17T15:42:26.469Z,1.50
2024-04-17T15:44:54.343Z,0.90
2024-04-17T15:47:23.569Z,1.17
2024-04-17T15:49:51.887Z,1.10
2024-04-17T15:52:19.002Z,1.25
2024-04-17T15:54:46.732Z,0.82
2024-04-17T15:57:13.788Z,1.10
2024-04-17T15:59:40.553Z,1.23
2024-04-17T16:02:10.237Z,1.85
2024-04-17T16:04:37.005Z,2.17
2024-04-17T16:07:06.301Z,1.92
2024-04-17T16:09:33.095Z,2.97
2024-04-17T16:12:01.039Z,1.60
2024-04-17T16:14:27.631Z,1.75
2024-04-17T16:16:54.508Z,1.65
2024-04-17T16:19:21.310Z,1.55
2024-04-17T16:21:48.242Z,1.40
2024-04-17T16:24:14.978Z,1.30
2024-04-17T16:26:41.623Z,1.50
2024-04-17T16:29:08.467Z,2.15
2024-04-17T16:31:35.161Z,1.35
2024-04-17T16:39:39.206Z,2.20
2024-04-17T16:42:06.642Z,1.80
2024-04-17T16:44:33.242Z,1.77
2024-04-17T16:46:59.993Z,2.30
2024-04-17T16:49:27.717Z,1.70
2024-04-17T16:51:54.950Z,2.08
2024-04-17T16:54:21.850Z,2.40
2024-04-17T16:56:48.646Z,1.70
2024-04-17T16:59:16.401Z,1.60
2024-04-17T17:01:43.032Z,1.88
2024-04-17T17:04:09.897Z,2.85
2024-04-17T17:06:39.444Z,1.75
2024-04-17T17:09:07.098Z,2.10
2024-04-17T17:11:33.938Z,2.05
2024-04-17T17:14:01.614Z,1.83
2024-04-17T17:16:28.633Z,1.98
2024-04-17T17:18:55.512Z,2.20
2024-04-17T17:21:22.269Z,1.80
2024-04-17T17:23:49.947Z,2.47
2024-04-17T17:26:17.649Z,1.80
2024-04-17T17:28:44.409Z,2.05
2024-04-17T17:31:11.226Z,2.05
2024-04-17T17:33:38.463Z,2.10
2024-04-17T17:36:06.183Z,1.80
2024-04-17T17:38:35.614Z,2.45
2024-04-17T17:41:05.246Z,2.85
2024-04-17T17:43:31.820Z,2.88
2024-04-17T17:45:58.564Z,2.20
2024-04-17T17:48:25.452Z,2.03
2024-04-17T17:50:52.263Z,2.83
2024-04-17T17:53:19.300Z,2.10
2024-04-17T17:55:46.871Z,1.52
2024-04-17T18:01:00.430Z,2.03
2024-04-17T18:03:27.887Z,1.90
2024-04-17T18:05:55.635Z,1.92
2024-04-17T18:08:22.535Z,3.30
2024-04-17T18:10:49.566Z,1.60
2024-04-17T18:13:16.340Z,1.75
2024-04-17T18:15:43.215Z,2.58
2024-04-17T18:18:10.184Z,2.42
2024-04-17T18:20:37.051Z,1.40
2024-04-17T18:23:03.852Z,2.25
2024-04-17T18:25:30.569Z,1.98
2024-04-17T18:27:58.088Z,1.60
2024-04-17T18:30:25.187Z,1.33
2024-04-17T18:32:52.036Z,1.65
2024-04-17T18:35:19.060Z,1.67
2024-04-17T18:37:45.822Z,1.73
2024-04-17T18:40:12.793Z,3.45
2024-04-17T18:42:39.527Z,2.55
2024-04-17T18:45:06.360Z,3.60
2024-04-17T18:47:33.139Z,2.05
2024-04-17T18:49:59.972Z,3.00
2024-04-17T18:52:29.443Z,2.90
2024-04-17T18:54:56.424Z,2.53
2024-04-17T19:00:04.272Z,2.83
2024-04-17T19:02:33.740Z,2.10
2024-04-17T19:05:00.638Z,3.03
2024-04-17T19:07:27.710Z,2.45
2024-04-17T19:09:55.562Z,2.08
2024-04-17T19:12:22.275Z,2.20
2024-04-17T19:14:49.854Z,2.03
2024-04-17T19:17:16.548Z,2.50
2024-04-17T19:19:43.278Z,2.50
2024-04-17T19:22:10.049Z,2.17
2024-04-17T19:24:38.083Z,2.42
2024-04-17T19:27:05.167Z,3.25
2024-04-17T19:29:46.227Z,2.60
2024-04-17T19:32:18.854Z,2.20
2024-04-17T19:34:45.743Z,2.40
2024-04-17T19:37:12.734Z,2.60
2024-04-17T19:39:43.950Z,2.65
2024-04-17T19:42:15.100Z,2.45
2024-04-17T19:44:48.404Z,2.97
2024-04-17T19:47:15.160Z,4.05
2024-04-17T19:49:41.879Z,3.22
2024-04-17T19:52:11.435Z,3.25
2024-04-17T19:54:40.011Z,2.70
2024-04-17T19:57:07.042Z,2.80
2024-04-17T19:59:35.721Z,2.45
2024-04-17T20:02:03.241Z,2.97
2024-04-17T20:04:31.360Z,2.45
2024-04-17T20:06:58.643Z,2.60
2024-04-17T20:09:26.238Z,2.63
2024-04-17T20:11:53.692Z,3.30
2024-04-17T20:14:20.544Z,2.50
2024-04-17T20:16:48.011Z,2.80
2024-04-17T20:19:14.971Z,3.67
2024-04-17T20:21:44.164Z,2.72
2024-04-17T20:24:10.927Z,2.50
2024-04-17T20:26:38.460Z,2.60
2024-04-17T20:29:07.781Z,2.45
2024-04-17T20:31:35.275Z,2.45
2024-04-17T20:34:02.047Z,3.00
2024-04-17T20:36:28.989Z,2.72
2024-04-17T20:38:55.805Z,2.58
2024-04-17T20:41:22.884Z,4.38
2024-04-17T20:43:49.606Z,2.80
2024-04-17T20:46:16.375Z,2.90
2024-04-17T20:48:43.549Z,2.78
2024-04-17T20:51:10.355Z,3.15
2024-04-17T20:53:37.794Z,2.58
2024-04-17T20:56:05.319Z,2.83
2024-04-17T20:58:32.155Z,4.85
2024-04-17T21:00:59.263Z,2.78
2024-04-17T21:03:26.060Z,2.15
2024-04-17T21:05:52.720Z,2.50
2024-04-17T21:08:19.461Z,2.78
2024-04-17T21:10:46.145Z,2.85
2024-04-17T21:13:12.784Z,3.08
2024-04-17T21:15:41.182Z,2.95
2024-04-17T21:18:10.531Z,3.10
2024-04-17T21:20:38.228Z,2.70
2024-04-17T21:23:07.877Z,2.90
2024-04-17T21:25:36.233Z,2.78
2024-04-17T21:28:03.542Z,4.20
2024-04-17T21:30:30.162Z,2.95
2024-04-17T21:32:59.415Z,3.72
2024-04-17T21:35:27.097Z,3.00
2024-04-17T21:37:54.248Z,3.63
2024-04-17T21:40:22.472Z,3.10
2024-04-17T21:42:52.408Z,3.50
2024-04-17T21:45:19.318Z,3.00
2024-04-17T21:47:46.597Z,4.20
2024-04-17T21:53:04.245Z,4.18
2024-04-17T21:55:30.924Z,4.35
2024-04-17T21:57:58.608Z,4.28
2024-04-17T22:00:25.610Z,3.10
2024-04-17T22:02:52.684Z,3.50
2024-04-17T22:05:22.300Z,3.40
2024-04-17T22:07:48.959Z,2.90
2024-04-17T22:10:15.570Z,2.85
2024-04-17T22:12:42.721Z,4.25
2024-04-17T22:15:09.762Z,3.17
2024-04-17T22:17:38.385Z,3.35
2024-04-17T22:20:04.944Z,4.03
2024-04-17T22:22:31.783Z,3.58
2024-04-17T22:24:58.763Z,3.47
2024-04-17T22:27:26.430Z,3.50
2024-04-17T22:29:53.353Z,3.00
2024-04-17T22:32:20.014Z,3.65
2024-04-17T22:34:46.880Z,3.28
2024-04-17T22:37:13.523Z,3.70
2024-04-17T22:39:51.974Z,3.22
2024-04-17T22:42:19.257Z,3.05
2024-04-17T22:44:46.389Z,3.40
2024-04-17T22:47:13.063Z,5.07
2024-04-17T22:49:42.995Z,4.30
2024-04-17T22:52:09.714Z,3.33
2024-04-17T22:54:36.633Z,3.67
2024-04-17T22:57:03.793Z,3.53
2024-04-17T22:59:30.378Z,3.55
2024-04-17T23:01:59.292Z,3.63
2024-04-17T23:04:26.134Z,3.38
2024-04-17T23:06:52.985Z,3.47
2024-04-17T23:09:22.111Z,4.63
2024-04-17T23:11:48.855Z,3.70
2024-04-17T23:14:16.098Z,4.10
2024-04-17T23:16:45.153Z,4.55
2024-04-17T23:19:17.048Z,4.95
2024-04-17T23:21:50.367Z,3.55
2024-04-17T23:24:17.190Z,3.28
2024-04-17T23:26:44.182Z,3.55
2024-04-17T23:29:10.830Z,3.47
2024-04-17T23:31:37.481Z,5.18
2024-04-17T23:34:04.118Z,3.83
2024-04-17T23:36:30.831Z,4.20
2024-04-17T23:38:59.230Z,3.83
2024-04-17T23:41:25.972Z,4.25
2024-04-17T23:43:53.547Z,4.57
2024-04-17T23:46:22.645Z,3.97
2024-04-17T23:48:49.710Z,5.90
2024-04-17T23:51:18.899Z,4.68
2024-04-17T23:53:48.789Z,4.25
2024-04-17T23:56:15.753Z,4.53
2024-04-17T23:58:42.379Z,4.22
